Terminal Aerodrome Forecast
Issued by NWS Grand Forks, ND

Home | Current Version | Previous Version | Text Only | Print | Product List | Glossary Off
Versions: 1 2 3 4 5 6 7 8 9 10 11 12 13 14 15 16

000
FTUS43 KFGF 201700
TAFGFK
TAF
KGFK 201720Z 2018/2118 18014KT P6SM BKN250
     FM210200 20015KT P6SM BKN100
     FM210600 29013KT P6SM SCT050
     FM211500 33019G26KT P6SM BKN030=

USA.gov is the U.S. government's official web portal to all federal, state and local government web resources and services.